createdAt,value
2018-08-12T00:00:31.083Z,18.80
2018-08-12T00:02:59.263Z,18.80
2018-08-12T00:05:26.951Z,18.70
2018-08-12T00:07:55.242Z,18.60
2018-08-12T00:10:23.815Z,18.50
2018-08-12T00:12:51.735Z,18.40
2018-08-12T00:15:20.639Z,18.30
2018-08-12T00:17:48.439Z,18.30
2018-08-12T00:20:17.867Z,18.30
2018-08-12T00:22:46.426Z,18.30
2018-08-12T00:25:15.665Z,18.10
2018-08-12T00:27:43.642Z,18.20
2018-08-12T00:30:13.927Z,18.10
2018-08-12T00:32:42.112Z,18.00
2018-08-12T00:35:11.760Z,18.00
2018-08-12T00:37:40.164Z,18.20
2018-08-12T00:40:09.124Z,18.00
2018-08-12T00:42:37.105Z,17.90
2018-08-12T00:45:07.184Z,17.90
2018-08-12T00:47:35.052Z,17.80
2018-08-12T00:50:02.853Z,17.50
2018-08-12T00:52:30.800Z,17.50
2018-08-12T00:54:58.657Z,17.40
2018-08-12T00:57:26.487Z,17.30
2018-08-12T00:59:54.356Z,17.00
2018-08-12T01:02:22.262Z,17.60
2018-08-12T01:04:50.145Z,17.50
2018-08-12T01:07:18.671Z,17.60
2018-08-12T01:09:46.660Z,17.80
2018-08-12T01:12:14.475Z,17.50
2018-08-12T01:14:42.423Z,17.70
2018-08-12T01:17:10.311Z,17.80
2018-08-12T01:19:38.215Z,17.60
2018-08-12T01:22:06.114Z,17.60
2018-08-12T01:24:33.972Z,17.60
2018-08-12T01:27:01.728Z,17.50
2018-08-12T01:29:29.539Z,17.60
2018-08-12T01:31:57.418Z,17.70
2018-08-12T01:34:25.247Z,17.70
2018-08-12T01:36:52.991Z,17.80
2018-08-12T01:39:20.773Z,18.00
2018-08-12T01:41:48.569Z,17.80
2018-08-12T01:44:16.274Z,17.80
2018-08-12T01:46:44.000Z,17.90
2018-08-12T01:49:11.846Z,18.00
2018-08-12T01:51:39.576Z,18.10
2018-08-12T01:54:07.403Z,17.90
2018-08-12T01:56:35.133Z,17.70
2018-08-12T01:59:03.057Z,17.60
2018-08-12T02:01:30.912Z,17.30
2018-08-12T02:03:58.830Z,16.90
2018-08-12T02:06:26.910Z,16.70
2018-08-12T02:08:54.809Z,16.50
2018-08-12T02:11:22.714Z,16.50
2018-08-12T02:13:50.503Z,16.60
2018-08-12T02:16:18.231Z,16.40
2018-08-12T02:18:46.364Z,16.70
2018-08-12T02:21:14.589Z,16.80
2018-08-12T02:23:42.407Z,16.80
2018-08-12T02:26:10.194Z,16.40
2018-08-12T02:28:37.965Z,16.00
2018-08-12T02:31:05.815Z,16.30
2018-08-12T02:33:33.595Z,16.40
2018-08-12T02:36:01.412Z,16.50
2018-08-12T02:38:29.215Z,16.60
2018-08-12T02:40:56.996Z,16.70
2018-08-12T02:43:24.838Z,16.70
2018-08-12T02:45:52.756Z,16.70
2018-08-12T02:48:20.476Z,16.80
2018-08-12T02:50:48.357Z,16.90
2018-08-12T02:53:16.111Z,16.90
2018-08-12T02:55:48.340Z,17.10
2018-08-12T02:58:16.117Z,17.10
2018-08-12T03:00:43.942Z,16.80
2018-08-12T03:03:11.816Z,16.90
2018-08-12T03:05:39.686Z,17.00
2018-08-12T03:08:07.729Z,17.00
2018-08-12T03:10:35.526Z,17.10
2018-08-12T03:13:03.283Z,17.00
2018-08-12T03:15:31.024Z,17.10
2018-08-12T03:17:58.787Z,17.20
2018-08-12T03:20:26.675Z,16.90
2018-08-12T03:22:54.560Z,16.80
2018-08-12T03:25:22.369Z,16.70
2018-08-12T03:27:50.117Z,16.40
2018-08-12T03:30:17.936Z,16.50
2018-08-12T03:32:45.716Z,16.50
2018-08-12T03:35:13.584Z,16.30
2018-08-12T03:37:41.320Z,16.50
2018-08-12T03:40:11.126Z,16.60
2018-08-12T03:42:38.944Z,16.70
2018-08-12T03:45:07.438Z,16.80
2018-08-12T03:47:35.267Z,17.00
2018-08-12T03:50:03.317Z,16.90
2018-08-12T03:52:31.081Z,16.90
2018-08-12T03:54:59.169Z,16.90
2018-08-12T03:57:26.921Z,16.70
2018-08-12T03:59:54.773Z,17.10
2018-08-12T04:02:22.591Z,17.10
2018-08-12T04:04:50.406Z,17.10
2018-08-12T04:07:18.272Z,16.90
2018-08-12T04:09:46.107Z,17.10
2018-08-12T04:12:13.943Z,17.10
2018-08-12T04:14:41.619Z,17.00
2018-08-12T04:17:09.458Z,17.00
2018-08-12T04:19:37.338Z,16.60
2018-08-12T04:22:05.301Z,17.00
2018-08-12T04:24:33.028Z,16.90
2018-08-12T04:27:00.915Z,16.90
2018-08-12T04:29:28.626Z,16.90
2018-08-12T04:31:56.474Z,16.90
2018-08-12T04:34:24.340Z,16.80
2018-08-12T04:36:52.120Z,16.80
2018-08-12T04:39:20.751Z,16.80
2018-08-12T04:41:48.580Z,16.90
2018-08-12T04:44:16.392Z,17.30
2018-08-12T04:46:44.213Z,16.90
2018-08-12T04:49:11.991Z,16.70
2018-08-12T04:51:39.789Z,16.80
2018-08-12T04:54:07.852Z,16.90
2018-08-12T04:56:35.861Z,16.80
2018-08-12T04:59:03.679Z,16.50
2018-08-12T05:01:31.471Z,16.80
2018-08-12T05:04:00.427Z,16.80
2018-08-12T05:06:28.206Z,16.80
2018-08-12T05:08:56.018Z,16.70
2018-08-12T05:11:23.866Z,16.80
2018-08-12T05:13:51.664Z,16.70
2018-08-12T05:16:19.795Z,16.70
2018-08-12T05:18:47.630Z,16.90
2018-08-12T05:21:15.377Z,16.90
2018-08-12T05:23:43.079Z,16.90
2018-08-12T05:26:11.007Z,17.10
2018-08-12T05:28:38.739Z,17.10
2018-08-12T05:31:06.599Z,17.10
2018-08-12T05:33:34.302Z,17.20
2018-08-12T05:36:02.095Z,17.10
2018-08-12T05:38:29.856Z,17.30
2018-08-12T05:40:57.700Z,17.10
2018-08-12T05:43:25.504Z,17.30
2018-08-12T05:45:53.323Z,17.30
2018-08-12T05:48:21.123Z,16.90
2018-08-12T05:50:48.923Z,17.60
2018-08-12T05:53:16.727Z,17.50
2018-08-12T05:55:44.556Z,17.60
2018-08-12T05:58:12.358Z,17.60
2018-08-12T06:00:40.317Z,17.40
2018-08-12T06:03:08.256Z,17.40
2018-08-12T06:05:36.065Z,17.40
2018-08-12T06:08:04.008Z,17.50
2018-08-12T06:10:31.802Z,17.50
2018-08-12T06:12:59.664Z,17.60
2018-08-12T06:15:27.432Z,17.80
2018-08-12T06:17:55.432Z,17.80
2018-08-12T06:20:23.310Z,17.90
2018-08-12T06:22:51.149Z,18.00
2018-08-12T06:25:18.984Z,18.10
2018-08-12T06:27:47.711Z,17.70
2018-08-12T06:30:15.567Z,18.30
2018-08-12T06:32:43.392Z,18.30
2018-08-12T06:35:11.866Z,18.40
2018-08-12T06:37:39.708Z,18.20
2018-08-12T06:40:10.473Z,18.50
2018-08-12T06:42:39.419Z,18.70
2018-08-12T06:45:09.355Z,18.80
2018-08-12T06:47:37.260Z,19.00
2018-08-12T06:50:05.911Z,19.90
2018-08-12T06:52:33.880Z,21.40
2018-08-12T06:55:01.813Z,23.20
2018-08-12T06:57:29.691Z,24.70
2018-08-12T06:59:57.492Z,25.90
2018-08-12T07:02:25.432Z,26.80
2018-08-12T07:04:53.260Z,27.50
2018-08-12T07:07:21.109Z,28.10
2018-08-12T07:09:49.055Z,29.00
2018-08-12T07:12:16.942Z,29.70
2018-08-12T07:14:44.946Z,30.10
2018-08-12T07:17:12.744Z,30.60
2018-08-12T07:19:40.584Z,30.60
2018-08-12T07:22:08.407Z,31.00
2018-08-12T07:24:36.286Z,31.00
2018-08-12T07:27:04.187Z,30.90
2018-08-12T07:29:32.324Z,31.00
2018-08-12T07:32:00.284Z,31.30
2018-08-12T07:34:28.244Z,31.20
2018-08-12T07:36:56.030Z,31.20
2018-08-12T07:39:25.119Z,31.40
2018-08-12T07:41:59.220Z,32.00
2018-08-12T07:44:26.994Z,32.20
2018-08-12T07:46:54.855Z,32.60
2018-08-12T07:49:22.731Z,32.50
2018-08-12T07:51:50.607Z,32.50
2018-08-12T07:54:18.554Z,32.60
2018-08-12T07:56:46.324Z,32.90
2018-08-12T07:59:14.389Z,33.30
2018-08-12T08:01:42.205Z,33.30
2018-08-12T08:04:11.127Z,33.60
2018-08-12T08:06:38.962Z,34.20
2018-08-12T08:09:08.753Z,34.90
2018-08-12T08:11:36.588Z,35.20
2018-08-12T08:14:05.380Z,34.90
2018-08-12T08:16:33.162Z,34.00
2018-08-12T08:19:00.939Z,34.10
2018-08-12T08:21:28.851Z,35.00
2018-08-12T08:23:56.872Z,35.60
2018-08-12T08:26:24.751Z,36.10
2018-08-12T08:28:52.543Z,34.20
2018-08-12T08:31:20.407Z,33.70
2018-08-12T08:33:48.257Z,34.50
2018-08-12T08:36:16.294Z,35.50
2018-08-12T08:38:44.156Z,35.70
2018-08-12T08:41:11.815Z,35.50
2018-08-12T08:43:39.739Z,35.80
2018-08-12T08:46:07.761Z,36.70
2018-08-12T08:48:35.592Z,37.20
2018-08-12T08:51:03.378Z,37.20
2018-08-12T08:53:31.215Z,37.40
2018-08-12T08:55:59.115Z,37.80
2018-08-12T08:58:27.523Z,37.70
2018-08-12T09:00:55.297Z,37.60
2018-08-12T09:03:23.266Z,37.60
2018-08-12T09:05:50.978Z,37.00
2018-08-12T09:08:18.762Z,36.40
2018-08-12T09:10:47.278Z,37.10
2018-08-12T09:13:15.754Z,37.40
2018-08-12T09:15:43.479Z,37.50
2018-08-12T09:18:11.663Z,37.80
2018-08-12T09:20:39.482Z,37.60
2018-08-12T09:23:07.323Z,38.00
2018-08-12T09:25:35.258Z,37.00
2018-08-12T09:28:03.026Z,36.40
2018-08-12T09:30:30.965Z,36.00
2018-08-12T09:32:59.003Z,36.40
2018-08-12T09:35:27.001Z,36.10
2018-08-12T09:37:54.719Z,35.20
2018-08-12T09:40:22.616Z,34.70
2018-08-12T09:42:50.341Z,34.90
2018-08-12T09:45:19.469Z,34.90
2018-08-12T09:47:57.075Z,34.40
2018-08-12T09:50:25.048Z,34.10
2018-08-12T09:52:53.459Z,34.40
2018-08-12T09:55:21.343Z,33.70
2018-08-12T09:57:49.113Z,33.20
2018-08-12T10:00:23.066Z,33.70
2018-08-12T10:02:52.203Z,33.10
2018-08-12T10:05:20.220Z,32.80
2018-08-12T10:07:47.995Z,32.90
2018-08-12T10:10:16.319Z,32.20
2018-08-12T10:12:44.568Z,31.70
2018-08-12T10:15:13.138Z,31.50
2018-08-12T10:17:42.281Z,31.20
2018-08-12T10:20:11.179Z,31.60
2018-08-12T10:22:38.967Z,31.70
2018-08-12T10:25:08.306Z,31.20
2018-08-12T10:27:36.124Z,30.30
2018-08-12T10:30:06.307Z,30.40
2018-08-12T10:32:34.282Z,30.40
2018-08-12T10:35:02.282Z,30.10
2018-08-12T10:37:30.108Z,30.00
2018-08-12T10:39:57.889Z,30.00
2018-08-12T10:42:25.664Z,30.20
2018-08-12T10:44:53.754Z,30.30
2018-08-12T10:47:21.887Z,30.80
2018-08-12T10:49:49.689Z,31.30
2018-08-12T10:52:17.675Z,31.10
2018-08-12T10:54:45.573Z,31.10
2018-08-12T10:57:13.457Z,30.90
2018-08-12T10:59:41.431Z,30.50
2018-08-12T11:02:09.355Z,30.30
2018-08-12T11:04:37.400Z,30.40
2018-08-12T11:07:05.307Z,30.30
2018-08-12T11:09:33.329Z,30.20
2018-08-12T11:12:01.271Z,29.70
2018-08-12T11:14:29.186Z,29.20
2018-08-12T11:16:57.040Z,29.00
2018-08-12T11:19:25.788Z,29.20
2018-08-12T11:21:53.511Z,29.50
2018-08-12T11:24:21.354Z,29.60
2018-08-12T11:26:49.148Z,29.80
2018-08-12T11:29:17.063Z,29.90
2018-08-12T11:31:44.900Z,30.30
2018-08-12T11:34:12.743Z,30.90
2018-08-12T11:36:41.937Z,31.10
2018-08-12T11:39:12.730Z,31.10
2018-08-12T11:41:42.134Z,31.50
2018-08-12T11:44:11.983Z,31.50
2018-08-12T11:46:41.253Z,31.30
2018-08-12T11:49:11.364Z,31.10
2018-08-12T11:51:41.696Z,30.80
2018-08-12T11:54:09.620Z,30.60
2018-08-12T11:56:37.412Z,30.40
2018-08-12T11:59:05.188Z,30.60
2018-08-12T12:01:33.047Z,30.60
2018-08-12T12:04:00.771Z,30.20
2018-08-12T12:06:28.559Z,29.90
2018-08-12T12:08:56.182Z,30.00
2018-08-12T12:11:23.933Z,30.30
2018-08-12T12:13:51.675Z,30.80
2018-08-12T12:16:19.392Z,31.10
2018-08-12T12:18:47.131Z,30.90
2018-08-12T12:21:14.949Z,30.60
2018-08-12T12:23:42.728Z,30.60
2018-08-12T12:26:10.532Z,30.70
2018-08-12T12:28:38.360Z,30.90
2018-08-12T12:31:06.195Z,31.20
2018-08-12T12:33:34.072Z,31.00
2018-08-12T12:36:03.553Z,30.80
2018-08-12T12:38:31.338Z,30.60
2018-08-12T12:40:59.136Z,30.80
2018-08-12T12:43:27.053Z,31.00
2018-08-12T12:45:54.862Z,31.10
2018-08-12T12:48:22.638Z,31.00
2018-08-12T12:50:50.489Z,30.90
2018-08-12T12:53:18.275Z,30.80
2018-08-12T12:55:46.199Z,30.70
2018-08-12T12:58:14.070Z,30.60
2018-08-12T13:00:41.944Z,30.60
2018-08-12T13:03:09.840Z,30.60
2018-08-12T13:05:37.747Z,30.60
2018-08-12T13:08:05.569Z,30.30
2018-08-12T13:10:33.378Z,30.40
2018-08-12T13:13:01.148Z,30.60
2018-08-12T13:15:28.952Z,30.40
2018-08-12T13:17:56.936Z,30.00
2018-08-12T13:20:24.933Z,29.90
2018-08-12T13:22:52.683Z,30.00
2018-08-12T13:25:21.941Z,30.10
2018-08-12T13:27:49.825Z,30.30
2018-08-12T13:30:18.469Z,30.20
2018-08-12T13:32:47.151Z,30.20
2018-08-12T13:35:15.132Z,30.00
2018-08-12T13:37:43.130Z,30.10
2018-08-12T13:40:12.408Z,30.20
2018-08-12T13:42:40.903Z,30.20
2018-08-12T13:45:09.951Z,30.00
2018-08-12T13:47:38.173Z,30.00
2018-08-12T13:50:15.915Z,30.00
2018-08-12T13:52:43.807Z,30.20
2018-08-12T13:55:11.659Z,29.90
2018-08-12T13:57:39.561Z,30.10
2018-08-12T14:00:11.295Z,30.20
2018-08-12T14:02:39.325Z,30.30
2018-08-12T14:05:07.248Z,30.30
2018-08-12T14:07:35.131Z,30.50
2018-08-12T14:10:05.165Z,30.60
2018-08-12T14:12:33.011Z,30.60
2018-08-12T14:15:01.003Z,30.60
2018-08-12T14:17:28.998Z,30.60
2018-08-12T14:19:56.808Z,30.70
2018-08-12T14:22:24.827Z,30.70
2018-08-12T14:24:52.967Z,30.80
2018-08-12T14:27:20.835Z,30.60
2018-08-12T14:29:48.607Z,30.20
2018-08-12T14:32:16.416Z,30.30
2018-08-12T14:34:44.200Z,30.30
2018-08-12T14:37:12.156Z,30.40
2018-08-12T14:39:39.912Z,30.50
2018-08-12T14:42:07.667Z,30.60
2018-08-12T14:44:35.592Z,30.60
2018-08-12T14:47:03.433Z,30.60
2018-08-12T14:49:31.225Z,30.60
2018-08-12T14:51:59.094Z,30.60
2018-08-12T14:54:27.001Z,30.60
2018-08-12T14:56:54.926Z,30.60
2018-08-12T14:59:22.665Z,30.60
2018-08-12T15:01:50.440Z,30.70
2018-08-12T15:04:18.252Z,30.70
2018-08-12T15:06:46.021Z,30.30
2018-08-12T15:09:13.927Z,30.20
2018-08-12T15:11:41.978Z,30.10
2018-08-12T15:14:09.904Z,30.40
2018-08-12T15:16:37.665Z,30.50
2018-08-12T15:19:05.564Z,30.40
2018-08-12T15:21:33.739Z,30.20
2018-08-12T15:24:01.714Z,30.20
2018-08-12T15:26:29.556Z,30.40
2018-08-12T15:28:57.364Z,30.40
2018-08-12T15:31:25.229Z,30.50
2018-08-12T15:33:54.792Z,30.50
2018-08-12T15:36:22.588Z,30.40
2018-08-12T15:38:50.352Z,30.30
2018-08-12T15:41:18.600Z,30.50
2018-08-12T15:43:46.403Z,30.40
2018-08-12T15:46:14.156Z,30.50
2018-08-12T15:48:42.024Z,30.40
2018-08-12T15:51:09.840Z,30.50
2018-08-12T15:53:37.867Z,30.40
2018-08-12T15:56:05.787Z,30.20
2018-08-12T15:58:33.691Z,30.10
2018-08-12T16:01:01.561Z,30.20
2018-08-12T16:03:29.524Z,30.30
2018-08-12T16:05:57.459Z,30.30
2018-08-12T16:08:25.331Z,30.30
2018-08-12T16:13:31.867Z,30.30
2018-08-12T16:16:00.502Z,30.20
2018-08-12T16:18:28.351Z,30.20
2018-08-12T16:20:56.081Z,30.30
2018-08-12T16:23:23.812Z,30.30
2018-08-12T16:25:51.844Z,30.20
2018-08-12T16:28:19.735Z,30.10
2018-08-12T16:30:47.631Z,30.10
2018-08-12T16:33:15.419Z,30.20
2018-08-12T16:35:43.193Z,30.20
2018-08-12T16:38:10.987Z,30.20
2018-08-12T16:40:38.723Z,30.10
2018-08-12T16:43:06.661Z,30.10
2018-08-12T16:45:34.675Z,30.00
2018-08-12T16:48:02.620Z,30.00
2018-08-12T16:50:30.875Z,30.10
2018-08-12T16:52:58.973Z,30.00
2018-08-12T16:55:26.880Z,30.00
2018-08-12T16:57:54.631Z,30.00
2018-08-12T17:00:23.331Z,30.00
2018-08-12T17:02:51.116Z,29.90
2018-08-12T17:05:21.212Z,30.00
2018-08-12T17:07:49.377Z,30.10
2018-08-12T17:10:17.931Z,30.10
2018-08-12T17:12:45.910Z,30.10
2018-08-12T17:15:15.908Z,30.10
2018-08-12T17:17:43.620Z,30.00
2018-08-12T17:20:12.845Z,29.90
2018-08-12T17:22:41.447Z,29.80
2018-08-12T17:25:09.372Z,29.80
2018-08-12T17:27:37.332Z,29.80
2018-08-12T17:30:06.614Z,29.80
2018-08-12T17:32:34.485Z,29.80
2018-08-12T17:35:02.346Z,29.70
2018-08-12T17:37:30.884Z,29.70
2018-08-12T17:39:58.841Z,29.70
2018-08-12T17:42:26.678Z,29.70
2018-08-12T17:44:54.576Z,29.60
2018-08-12T17:47:22.448Z,29.60
2018-08-12T17:49:58.600Z,29.50
2018-08-12T17:52:26.397Z,29.50
2018-08-12T17:54:54.298Z,29.40
2018-08-12T17:57:22.130Z,29.40
2018-08-12T17:59:50.385Z,29.40
2018-08-12T18:02:18.179Z,29.30
2018-08-12T18:04:46.250Z,29.30
2018-08-12T18:07:14.300Z,29.20
2018-08-12T18:09:42.263Z,29.20
2018-08-12T18:12:11.080Z,29.10
2018-08-12T18:14:38.946Z,29.10
2018-08-12T18:17:06.907Z,29.10
2018-08-12T18:19:34.956Z,29.10
2018-08-12T18:22:03.589Z,29.00
2018-08-12T18:24:31.825Z,29.00
2018-08-12T18:26:59.969Z,28.90
2018-08-12T18:29:28.020Z,28.80
2018-08-12T18:31:56.732Z,28.80
2018-08-12T18:34:24.592Z,28.90
2018-08-12T18:36:52.534Z,28.60
2018-08-12T18:39:20.399Z,28.50
2018-08-12T18:41:48.315Z,28.40
2018-08-12T18:44:16.211Z,28.20
2018-08-12T18:46:44.219Z,28.30
2018-08-12T18:49:12.045Z,28.10
2018-08-12T18:51:40.083Z,28.00
2018-08-12T18:54:08.155Z,28.00
2018-08-12T18:56:35.917Z,27.90
2018-08-12T18:59:04.256Z,27.80
2018-08-12T19:01:32.323Z,27.70
2018-08-12T19:04:00.366Z,27.60
2018-08-12T19:06:28.267Z,27.50
2018-08-12T19:08:57.070Z,27.40
2018-08-12T19:11:26.300Z,27.30
2018-08-12T19:13:54.657Z,27.30
2018-08-12T19:16:23.991Z,27.20
2018-08-12T19:18:52.621Z,27.20
2018-08-12T19:21:20.606Z,27.10
2018-08-12T19:23:49.187Z,27.00
2018-08-12T19:26:19.544Z,27.00
2018-08-12T19:28:47.640Z,27.00
2018-08-12T19:31:15.771Z,27.00
2018-08-12T19:33:44.036Z,26.80
2018-08-12T19:36:12.720Z,26.60
2018-08-12T19:38:41.549Z,26.70
2018-08-12T19:41:09.583Z,26.70
2018-08-12T19:43:39.120Z,26.50
2018-08-12T19:46:08.985Z,26.60
2018-08-12T19:48:37.105Z,26.60
2018-08-12T19:51:05.709Z,26.50
2018-08-12T19:53:34.607Z,26.40
2018-08-12T19:56:02.466Z,26.30
2018-08-12T19:58:30.893Z,26.30
2018-08-12T20:00:59.512Z,26.30
2018-08-12T20:03:28.590Z,26.20
2018-08-12T20:05:57.700Z,26.10
2018-08-12T20:08:25.936Z,25.80
2018-08-12T20:10:54.069Z,26.10
2018-08-12T20:13:22.940Z,26.00
2018-08-12T20:15:51.484Z,25.90
2018-08-12T20:18:19.486Z,25.80
2018-08-12T20:20:47.713Z,25.70
2018-08-12T20:23:15.786Z,25.60
2018-08-12T20:25:44.492Z,25.50
2018-08-12T20:28:13.637Z,25.50
2018-08-12T20:30:41.659Z,25.50
2018-08-12T20:33:09.589Z,25.50
2018-08-12T20:35:38.494Z,25.50
2018-08-12T20:38:07.750Z,25.50
2018-08-12T20:40:36.194Z,25.40
2018-08-12T20:43:04.307Z,25.40
2018-08-12T20:45:32.242Z,25.30
2018-08-12T20:48:01.660Z,25.30
2018-08-12T20:50:31.167Z,25.20
2018-08-12T20:53:00.310Z,25.20
2018-08-12T20:55:35.983Z,25.20
2018-08-12T20:58:04.328Z,25.10
2018-08-12T21:00:32.521Z,25.10
2018-08-12T21:03:00.344Z,25.10
2018-08-12T21:05:28.354Z,25.10
2018-08-12T21:07:56.399Z,25.00
2018-08-12T21:10:24.415Z,25.00
2018-08-12T21:12:53.029Z,25.00
2018-08-12T21:15:20.889Z,24.90
2018-08-12T21:17:48.912Z,24.70
2018-08-12T21:20:16.798Z,24.70
2018-08-12T21:22:44.664Z,24.50
2018-08-12T21:25:12.579Z,24.40
2018-08-12T21:27:40.553Z,24.40
2018-08-12T21:30:09.461Z,24.30
2018-08-12T21:32:37.299Z,24.40
2018-08-12T21:35:05.239Z,24.50
2018-08-12T21:37:33.225Z,24.60
2018-08-12T21:40:01.155Z,24.50
2018-08-12T21:42:28.989Z,24.40
2018-08-12T21:44:57.065Z,24.40
2018-08-12T21:47:24.999Z,24.30
2018-08-12T21:49:52.738Z,24.30
2018-08-12T21:52:20.831Z,24.30
2018-08-12T21:54:48.796Z,24.30
2018-08-12T21:57:16.685Z,24.30
2018-08-12T21:59:44.540Z,24.30
2018-08-12T22:02:12.645Z,24.30
2018-08-12T22:04:40.710Z,24.30
2018-08-12T22:07:08.682Z,24.30
2018-08-12T22:09:36.644Z,24.10
2018-08-12T22:12:04.752Z,24.10
2018-08-12T22:14:33.096Z,24.00
2018-08-12T22:17:01.826Z,23.80
2018-08-12T22:19:29.840Z,23.60
2018-08-12T22:21:57.684Z,23.50
2018-08-12T22:24:25.472Z,23.40
2018-08-12T22:26:53.408Z,23.40
2018-08-12T22:29:21.240Z,23.20
2018-08-12T22:31:49.032Z,23.20
2018-08-12T22:34:17.118Z,23.20
2018-08-12T22:36:44.930Z,23.10
2018-08-12T22:39:12.968Z,23.10
2018-08-12T22:41:40.815Z,23.00
2018-08-12T22:44:08.659Z,23.10
2018-08-12T22:46:36.591Z,23.10
2018-08-12T22:49:04.627Z,23.10
2018-08-12T22:51:32.430Z,23.00
2018-08-12T22:54:00.223Z,23.00
2018-08-12T22:56:28.045Z,23.00
2018-08-12T22:58:55.885Z,22.90
2018-08-12T23:01:23.868Z,22.90
2018-08-12T23:03:51.664Z,22.90
2018-08-12T23:06:19.558Z,22.80
2018-08-12T23:08:47.557Z,22.80
2018-08-12T23:11:15.413Z,22.80
2018-08-12T23:13:43.307Z,22.80
2018-08-12T23:16:23.199Z,22.90
2018-08-12T23:18:51.026Z,22.80
2018-08-12T23:21:19.552Z,22.90
2018-08-12T23:23:48.291Z,22.80
2018-08-12T23:26:17.425Z,22.80
2018-08-12T23:28:45.366Z,22.80
2018-08-12T23:31:13.349Z,22.80
2018-08-12T23:33:41.207Z,22.90
2018-08-12T23:36:09.731Z,23.00
2018-08-12T23:38:37.874Z,22.90
2018-08-12T23:41:06.583Z,22.90
2018-08-12T23:43:34.509Z,22.80
2018-08-12T23:46:02.478Z,22.70
2018-08-12T23:48:30.655Z,22.70
2018-08-12T23:50:58.632Z,22.70
2018-08-12T23:53:26.492Z,22.70
2018-08-12T23:55:54.313Z,22.50
2018-08-12T23:58:22.126Z,22.50
